Airfield :
LOGIN :

Register | Disclaimer

   EN    FR    IT 

 










Legend :    VFR   Marginal VFR   IFR   Intensive IFR   Very Intensive IFR
Visi :
Ceiling :
>= 8 km
>= 3000ft
5 to 8 km
1000 to 3000 ft
1500m to 5 km
500 to 1000 ft
800 to 1500m
200 to 500 ft
< 800m
< 200 ft
Symbols :   Thunderstorms  Fog  Heavy snow  Heavy precipitations  Wind > 20 kt
SIGMETs :     Misc.  Thunderstorms  Icing  Turbulence  Mountain Waves  Volcanic Ashes







- Airport Elevation : 183 ft
- IATA code : HAJ


EDDV - Hanover/Langenhagen Int.

CURRENT METAR :
  • 250720Z 26015G26KT 9999 -SHRA SCT014 BKN030TCU 05/02 Q1014 TEMPO 28015G25KT 4500 SHRA BKN013CB

EXPIRED METARs :
  • 250650Z 27011KT 9999 SCT014 04/02 Q1014 NOSIG
  • 250620Z 27013KT 240V300 9999 SCT014 04/02 Q1015 NOSIG
  • 250550Z 27012KT 9999 -SHRA BKN013 BKN030 04/02 Q1015 BECMG SCT015
  • 250520Z 27012KT 9999 VCSH BKN013 SCT030 04/02 Q1015 BECMG SCT015
  • 250450Z 29013KT 9999 -SHRA SCT013 SCT016TCU 04/02 Q1015 NOSIG
  • 250420Z 28014KT 9999 -SHRA SCT013 BKN016TCU 04/03 Q1014 TEMPO BKN013

TAF TAF EDDV
Valid from the 25 at 06:00 until the 26 at 06:00 UTC


250500Z 2506/2606 29015G25KT 9999 FEW020
TEMPO 2507/2518 4000 SHRA BKN012CB
PROB30
TEMPO 2510/2515 30020G35KT 2500 TSGS BKN008CB
BECMG 2516/2518 30012KT
BECMG 2518/2520 30007KT
No reported NOTAMs for that airfield.



MET'MAP, your aeronautical weather chart ! - Copyright ORBIFLY December 2007 - Disclaimer

ORBIFLY MET'MAP TEAM :

Programming & Development : Alexandra Zaïnal
Concept & Development : Baudouin d'Aumeries
Co-Development & Prog : Marc-Olivier Méhu
Technical & hardware support : Manuel Goepfert

Contact : metmap@orbifly.com




SOURCES & CREDITS :

   NOAA